createdAt,value
2019-05-22T00:00:43.964Z,56.40
2019-05-22T00:01:43.929Z,56.00
2019-05-22T00:02:43.910Z,54.60
2019-05-22T00:03:43.903Z,54.10
2019-05-22T00:04:43.913Z,55.10
2019-05-22T00:05:43.904Z,51.80
2019-05-22T00:06:43.865Z,52.90
2019-05-22T00:07:43.857Z,51.50
2019-05-22T00:08:43.847Z,53.90
2019-05-22T00:09:43.833Z,53.50
2019-05-22T00:10:43.849Z,51.50
2019-05-22T00:17:03.311Z,48.30
2019-05-22T00:17:37.548Z,43.90
2019-05-22T00:18:10.828Z,43.60
2019-05-22T00:18:50.864Z,44.10
2019-05-22T00:19:25.141Z,42.20
2019-05-22T00:20:07.175Z,40.50
2019-05-22T00:20:49.259Z,44.30
2019-05-22T00:21:31.604Z,46.80
2019-05-22T00:22:13.358Z,45.70
2019-05-22T00:22:53.952Z,44.60
2019-05-22T00:23:28.185Z,46.70
2019-05-22T00:24:02.441Z,37.50
2019-05-22T00:24:42.704Z,40.80
2019-05-22T00:25:16.962Z,47.50
2019-05-22T00:25:51.228Z,41.50
2019-05-22T00:26:25.480Z,47.60
2019-05-22T00:26:59.724Z,46.60
2019-05-22T00:27:42.524Z,46.50
2019-05-22T00:28:22.958Z,42.40
2019-05-22T00:29:03.227Z,43.50
2019-05-22T00:29:42.901Z,48.70
2019-05-22T00:30:17.170Z,44.80
2019-05-22T00:30:51.426Z,47.70
2019-05-22T00:31:25.678Z,49.40
2019-05-22T00:31:59.927Z,46.00
2019-05-22T00:32:34.182Z,43.80
2019-05-22T00:33:09.435Z,44.20
2019-05-22T00:33:48.683Z,49.30
2019-05-22T00:34:28.348Z,45.40
2019-05-22T00:35:02.598Z,48.80
2019-05-22T00:35:40.206Z,51.70
2019-05-22T00:36:48.662Z,46.00
2019-05-22T00:37:22.925Z,43.30
2019-05-22T00:37:57.184Z,51.30
2019-05-22T00:38:33.833Z,55.00
2019-05-22T00:39:08.077Z,50.10
2019-05-22T00:39:42.334Z,47.10
2019-05-22T00:40:16.575Z,44.80
2019-05-22T00:40:50.877Z,50.70
2019-05-22T00:41:25.123Z,54.40
2019-05-22T00:41:59.961Z,50.40
2019-05-22T00:42:34.201Z,48.10
2019-05-22T00:43:13.854Z,49.00
2019-05-22T00:43:42.722Z,45.80
2019-05-22T00:44:16.976Z,49.70
2019-05-22T00:44:51.229Z,54.70
2019-05-22T05:00:16.860Z,13.90
2019-05-22T05:00:54.100Z,13.90
2019-05-22T05:01:28.363Z,13.60
2019-05-22T05:24:42.845Z,15.70
2019-05-22T05:27:14.042Z,14.20
2019-05-22T05:28:19.496Z,14.00
2019-05-22T05:29:04.980Z,12.00
2019-05-22T05:29:45.159Z,15.10
2019-05-22T05:30:50.632Z,12.20
2019-05-22T05:31:59.889Z,14.80
2019-05-22T05:32:40.889Z,13.10
2019-05-22T05:33:15.157Z,11.80
2019-05-22T05:33:49.411Z,15.00
2019-05-22T05:34:27.259Z,16.10
2019-05-22T05:35:32.788Z,15.10
2019-05-22T05:36:38.290Z,14.40
2019-05-22T05:37:18.567Z,13.70
2019-05-22T05:38:03.939Z,13.10
2019-05-22T05:39:29.590Z,13.70
2019-05-22T05:40:35.112Z,12.80
2019-05-22T05:42:00.723Z,14.60
2019-05-22T05:43:26.370Z,14.50
2019-05-22T05:44:31.885Z,15.30
2019-05-22T05:45:57.539Z,13.40
2019-05-22T05:47:03.013Z,11.10
2019-05-22T05:48:28.712Z,13.80
2019-05-22T05:49:34.173Z,16.20
2019-05-22T05:50:59.805Z,9.10
2019-05-22T05:52:05.289Z,11.60
2019-05-22T05:53:30.950Z,12.40
2019-05-22T05:54:36.440Z,13.90
2019-05-22T05:56:02.110Z,14.40
2019-05-22T05:57:27.740Z,12.70
2019-05-22T05:58:33.243Z,14.60
2019-05-22T05:59:38.763Z,11.70
2019-05-22T06:00:19.942Z,10.60
2019-05-22T06:01:03.251Z,11.90
2019-05-22T06:02:09.906Z,9.90
2019-05-22T06:02:56.740Z,10.70
2019-05-22T06:03:35.535Z,10.50
2019-05-22T06:04:33.623Z,9.80
2019-05-22T06:05:01.166Z,10.80
2019-05-22T06:05:46.549Z,12.10
2019-05-22T06:06:26.804Z,8.80
2019-05-22T06:07:12.177Z,9.50
2019-05-22T06:08:17.690Z,11.60
2019-05-22T06:09:43.332Z,9.80
2019-05-22T06:10:48.838Z,11.30
2019-05-22T06:12:14.465Z,12.30
2019-05-22T06:13:40.108Z,12.50
2019-05-22T06:14:45.617Z,11.10
2019-05-22T06:16:11.272Z,9.70
2019-05-22T06:17:16.767Z,12.40
2019-05-22T06:18:42.402Z,11.40
2019-05-22T06:19:47.917Z,9.40
2019-05-22T06:21:13.571Z,9.50
2019-05-22T06:22:19.056Z,8.40
2019-05-22T06:23:44.685Z,9.90
2019-05-22T06:24:50.187Z,7.40
2019-05-22T06:26:15.846Z,9.60
2019-05-22T06:27:21.328Z,9.20
2019-05-22T06:28:47.000Z,10.10
2019-05-22T06:29:52.466Z,7.60
2019-05-22T06:31:18.121Z,8.70
2019-05-22T06:32:23.603Z,8.30
2019-05-22T06:33:49.244Z,9.10
2019-05-22T06:34:54.743Z,11.10
2019-05-22T06:36:20.408Z,8.00
2019-05-22T06:37:25.898Z,7.90
2019-05-22T06:38:51.490Z,7.90
2019-05-22T06:39:56.981Z,7.00
2019-05-22T06:41:22.631Z,8.20
2019-05-22T06:42:28.106Z,7.00
2019-05-22T06:43:53.741Z,7.60
2019-05-22T06:44:59.238Z,6.70
2019-05-22T06:46:24.896Z,7.10
2019-05-22T06:47:24.877Z,6.60
2019-05-22T06:48:56.021Z,8.10
2019-05-22T06:49:56.025Z,7.60
2019-05-22T06:50:56.049Z,7.10
2019-05-22T06:51:55.989Z,6.60
2019-05-22T06:53:08.858Z,5.70
2019-05-22T06:53:58.342Z,8.10
2019-05-22T06:55:03.867Z,6.20
2019-05-22T06:56:29.518Z,5.10
2019-05-22T06:57:35.031Z,7.00
2019-05-22T06:59:00.671Z,6.10
2019-05-22T07:00:15.192Z,6.80
2019-05-22T07:01:31.843Z,8.00
2019-05-22T07:02:31.806Z,7.70
2019-05-22T07:04:02.974Z,8.20
2019-05-22T07:05:02.972Z,8.30
2019-05-22T07:06:02.968Z,7.60
2019-05-22T07:07:03.461Z,6.90
2019-05-22T07:08:02.949Z,7.20
2019-05-22T07:09:02.915Z,7.80
2019-05-22T07:10:02.916Z,7.00
2019-05-22T07:11:02.917Z,7.60
2019-05-22T07:12:02.966Z,6.50
2019-05-22T07:13:02.871Z,7.80
2019-05-22T07:14:02.857Z,8.20
2019-05-22T07:15:02.861Z,8.10
2019-05-22T07:16:02.847Z,5.60
2019-05-22T07:17:02.828Z,6.70
2019-05-22T07:18:02.840Z,6.70
2019-05-22T07:19:02.806Z,8.10
2019-05-22T07:20:02.803Z,7.50
2019-05-22T07:21:02.782Z,7.60
2019-05-22T07:22:02.781Z,6.20
2019-05-22T07:23:02.782Z,8.30
2019-05-22T07:24:12.234Z,6.80
2019-05-22T07:25:12.216Z,6.70
2019-05-22T07:26:12.210Z,7.30
2019-05-22T07:27:12.186Z,7.30
2019-05-22T07:28:12.207Z,6.70
2019-05-22T07:29:12.169Z,7.80
2019-05-22T07:30:12.231Z,6.80
2019-05-22T07:31:13.372Z,7.70
2019-05-22T07:32:12.126Z,8.70
2019-05-22T07:33:12.145Z,6.90
2019-05-22T07:34:12.115Z,8.10
2019-05-22T07:35:12.104Z,8.50
2019-05-22T07:36:16.384Z,7.00
2019-05-22T07:37:12.076Z,7.10
2019-05-22T07:38:12.078Z,6.20
2019-05-22T07:39:12.047Z,5.60
2019-05-22T07:40:12.035Z,7.20
2019-05-22T07:41:12.029Z,8.10
2019-05-22T07:42:12.014Z,6.40
2019-05-22T07:43:12.041Z,6.30
2019-05-22T07:44:12.022Z,6.90
2019-05-22T07:45:11.975Z,6.30
2019-05-22T07:46:11.975Z,6.20
2019-05-22T07:47:11.957Z,8.40
2019-05-22T07:48:12.268Z,5.80
2019-05-22T07:49:11.931Z,7.10
2019-05-22T07:50:11.921Z,8.10
2019-05-22T07:51:11.903Z,6.40
2019-05-22T07:52:11.903Z,8.00
2019-05-22T07:53:11.928Z,6.70
2019-05-22T07:54:11.879Z,7.30
2019-05-22T07:55:11.859Z,6.30
2019-05-22T07:56:11.867Z,7.70
2019-05-22T07:57:11.838Z,7.20
2019-05-22T07:58:11.853Z,6.40
2019-05-22T07:59:11.816Z,7.00
2019-05-22T08:00:11.820Z,6.60
2019-05-22T08:01:11.804Z,7.60
2019-05-22T08:02:11.780Z,7.30
2019-05-22T08:03:11.797Z,7.10
2019-05-22T08:04:11.755Z,8.50
2019-05-22T08:05:11.745Z,7.20
2019-05-22T08:06:11.766Z,6.90
2019-05-22T08:07:11.771Z,9.40
2019-05-22T08:08:11.786Z,6.70
2019-05-22T08:09:11.698Z,7.90
2019-05-22T08:10:11.691Z,8.40
2019-05-22T08:11:11.769Z,7.50
2019-05-22T08:12:11.691Z,6.60
2019-05-22T08:13:11.682Z,8.40
2019-05-22T08:14:11.639Z,7.60
2019-05-22T08:15:11.626Z,5.90
2019-05-22T08:16:11.617Z,9.20
2019-05-22T08:17:11.660Z,6.20
2019-05-22T08:18:11.590Z,7.50
2019-05-22T08:19:11.607Z,6.50
2019-05-22T08:20:11.570Z,7.10
2019-05-22T08:21:11.555Z,6.10
2019-05-22T08:22:11.543Z,6.80
2019-05-22T08:23:11.533Z,6.20
2019-05-22T08:24:11.549Z,7.30
2019-05-22T08:25:11.511Z,6.70
2019-05-22T08:26:11.496Z,7.10
2019-05-22T08:27:11.485Z,6.80
2019-05-22T08:28:11.471Z,7.80
2019-05-22T08:29:11.481Z,7.10
2019-05-22T08:30:11.446Z,7.70
2019-05-22T08:31:11.433Z,6.80
2019-05-22T08:32:11.433Z,6.70
2019-05-22T08:33:11.416Z,7.40
2019-05-22T08:34:11.423Z,8.60
2019-05-22T08:35:11.389Z,10.00
2019-05-22T08:36:11.377Z,7.90
2019-05-22T08:37:11.362Z,7.60
2019-05-22T08:38:11.356Z,8.30
2019-05-22T08:39:11.360Z,7.10
2019-05-22T08:40:11.328Z,7.50
2019-05-22T08:41:11.319Z,8.30
2019-05-22T08:42:11.391Z,7.90
2019-05-22T08:43:11.293Z,8.80
2019-05-22T08:44:16.736Z,7.70
2019-05-22T08:45:12.267Z,8.50
2019-05-22T08:46:11.258Z,9.50
2019-05-22T08:47:11.264Z,6.40
2019-05-22T08:48:11.232Z,7.20
2019-05-22T08:49:11.244Z,7.70
2019-05-22T08:50:11.212Z,7.40
2019-05-22T08:51:11.198Z,8.80
2019-05-22T08:52:22.977Z,6.90
2019-05-22T08:53:12.182Z,7.30
2019-05-22T08:54:11.163Z,7.00
2019-05-22T08:55:11.180Z,8.80
2019-05-22T08:56:11.141Z,7.30
2019-05-22T08:57:11.126Z,8.10
2019-05-22T08:58:11.135Z,7.10
2019-05-22T08:59:19.585Z,8.40
2019-05-22T09:00:12.603Z,7.30
2019-05-22T09:01:11.080Z,6.90
2019-05-22T09:02:11.070Z,7.70
2019-05-22T09:03:11.058Z,8.10
2019-05-22T09:04:11.061Z,8.70
2019-05-22T09:05:11.060Z,7.70
2019-05-22T09:06:11.445Z,7.40
2019-05-22T09:07:11.013Z,7.30
2019-05-22T09:08:10.997Z,8.30
2019-05-22T09:09:10.989Z,6.80
2019-05-22T09:10:10.997Z,8.30
2019-05-22T09:11:10.967Z,8.80
2019-05-22T09:12:10.949Z,6.90
2019-05-22T09:13:10.940Z,7.60
2019-05-22T09:14:10.933Z,6.70
2019-05-22T09:15:10.938Z,8.00
2019-05-22T09:16:10.911Z,6.80
2019-05-22T09:17:10.894Z,8.00
2019-05-22T09:18:10.882Z,7.60
2019-05-22T09:19:11.017Z,8.00
2019-05-22T09:20:10.976Z,8.20
2019-05-22T09:21:10.850Z,8.50
2019-05-22T09:22:10.887Z,8.30
2019-05-22T09:23:10.839Z,6.50
2019-05-22T09:24:10.811Z,9.10
2019-05-22T09:25:10.826Z,7.90
2019-05-22T09:26:10.786Z,8.00
2019-05-22T09:27:10.774Z,9.70
2019-05-22T09:28:10.770Z,8.30
2019-05-22T09:29:10.750Z,10.50
2019-05-22T09:30:10.775Z,7.80
2019-05-22T09:31:10.728Z,7.50
2019-05-22T09:32:10.714Z,7.50
2019-05-22T09:33:10.705Z,7.60
2019-05-22T09:34:10.729Z,7.60
2019-05-22T09:35:10.684Z,7.10
2019-05-22T09:36:10.669Z,7.40
2019-05-22T09:37:10.658Z,7.20
2019-05-22T09:38:10.643Z,7.40
2019-05-22T09:39:10.658Z,6.70
2019-05-22T09:40:10.623Z,6.70
2019-05-22T09:41:10.611Z,8.30
2019-05-22T09:42:10.602Z,8.90
2019-05-22T09:43:10.591Z,11.40
2019-05-22T09:44:10.572Z,7.40
2019-05-22T09:45:10.582Z,7.60
2019-05-22T09:46:10.552Z,6.90
2019-05-22T09:47:10.540Z,5.70
2019-05-22T09:48:10.527Z,5.90
2019-05-22T09:49:10.520Z,6.20
2019-05-22T09:50:10.522Z,6.10
2019-05-22T09:51:10.496Z,6.10
2019-05-22T09:52:10.487Z,5.80
2019-05-22T09:53:10.469Z,6.30
2019-05-22T09:54:10.460Z,5.60
2019-05-22T09:55:10.472Z,6.10
2019-05-22T09:56:10.442Z,6.10
2019-05-22T09:57:10.421Z,6.70
2019-05-22T09:58:10.412Z,6.10
2019-05-22T09:59:10.401Z,6.30
2019-05-22T10:00:10.409Z,6.40
2019-05-22T10:01:11.955Z,5.80
2019-05-22T10:02:10.371Z,5.50
2019-05-22T10:03:10.355Z,7.70
2019-05-22T10:04:10.345Z,6.40
2019-05-22T10:05:10.354Z,6.40
2019-05-22T10:06:10.649Z,6.80
2019-05-22T10:07:10.307Z,7.00
2019-05-22T10:08:10.298Z,7.00
2019-05-22T10:09:10.285Z,6.90
2019-05-22T10:10:10.291Z,6.40
2019-05-22T10:11:10.263Z,7.20
2019-05-22T10:12:10.253Z,7.20
2019-05-22T10:13:10.250Z,7.00
2019-05-22T10:14:10.227Z,6.70
2019-05-22T10:15:10.525Z,6.20
2019-05-22T10:16:10.208Z,6.90
2019-05-22T10:17:10.195Z,6.80
2019-05-22T10:18:10.189Z,6.20
2019-05-22T10:19:10.179Z,7.70
2019-05-22T10:20:10.361Z,6.70
2019-05-22T10:21:10.153Z,6.70
2019-05-22T10:22:10.142Z,8.20
2019-05-22T10:23:15.299Z,7.20
2019-05-22T10:24:11.128Z,6.60
2019-05-22T10:25:15.781Z,6.80
2019-05-22T10:26:11.094Z,6.80
2019-05-22T10:27:10.090Z,6.50
2019-05-22T10:28:10.081Z,6.50
2019-05-22T10:29:10.062Z,6.80
2019-05-22T10:30:10.070Z,6.40
2019-05-22T10:31:11.046Z,6.40
2019-05-22T10:32:10.027Z,6.20
2019-05-22T10:33:10.024Z,6.10
2019-05-22T10:34:10.011Z,6.10
2019-05-22T10:35:10.014Z,6.30
2019-05-22T10:36:09.986Z,5.90
2019-05-22T10:37:09.978Z,5.70
2019-05-22T10:38:09.966Z,5.70
2019-05-22T10:39:09.949Z,5.30
2019-05-22T10:40:09.960Z,5.40
2019-05-22T10:41:09.928Z,6.00
2019-05-22T10:42:09.915Z,5.70
2019-05-22T10:43:09.912Z,5.20
2019-05-22T10:44:09.903Z,5.80
2019-05-22T10:45:09.901Z,6.30
2019-05-22T10:46:09.946Z,5.50
2019-05-22T10:47:09.865Z,5.10
2019-05-22T10:48:09.854Z,5.20
2019-05-22T10:49:09.849Z,5.60
2019-05-22T10:50:09.852Z,5.70
2019-05-22T10:51:09.829Z,5.80
2019-05-22T10:52:09.809Z,6.50
2019-05-22T10:53:09.794Z,6.90
2019-05-22T10:54:09.792Z,6.20
2019-05-22T10:55:09.792Z,6.70
2019-05-22T10:56:10.070Z,6.10
2019-05-22T10:57:09.753Z,6.80
2019-05-22T10:58:09.749Z,6.40
2019-05-22T10:59:09.734Z,6.50
2019-05-22T11:00:09.764Z,5.80
2019-05-22T11:01:09.707Z,5.70
2019-05-22T11:02:09.696Z,6.00
2019-05-22T11:03:09.689Z,5.90
2019-05-22T11:04:09.692Z,5.90
2019-05-22T11:05:09.675Z,5.80
2019-05-22T11:06:09.684Z,6.50
2019-05-22T11:07:09.644Z,5.90
2019-05-22T11:08:09.630Z,6.10
2019-05-22T11:09:09.621Z,7.20
2019-05-22T11:10:09.609Z,6.70
2019-05-22T11:11:09.623Z,6.10
2019-05-22T11:12:09.589Z,6.30
2019-05-22T11:13:09.576Z,6.40
2019-05-22T11:14:09.769Z,6.00
2019-05-22T11:15:09.560Z,6.10
2019-05-22T11:16:09.592Z,6.40
2019-05-22T11:17:09.533Z,5.80
2019-05-22T11:18:09.531Z,6.50
2019-05-22T11:19:09.588Z,6.60
2019-05-22T11:20:09.502Z,6.40
2019-05-22T11:21:09.510Z,6.70
2019-05-22T11:22:09.479Z,6.20
2019-05-22T11:23:09.469Z,6.50
2019-05-22T11:24:09.460Z,7.30
2019-05-22T11:25:09.451Z,6.20
2019-05-22T11:26:09.460Z,6.40
2019-05-22T11:27:09.427Z,9.20
2019-05-22T11:28:09.416Z,5.90
2019-05-22T11:29:09.405Z,6.20
2019-05-22T11:30:09.394Z,7.90
2019-05-22T11:31:09.408Z,6.40
2019-05-22T11:32:09.375Z,6.80
2019-05-22T11:33:09.424Z,7.00
2019-05-22T11:34:09.351Z,7.00
2019-05-22T11:35:09.349Z,6.30
2019-05-22T11:36:09.351Z,6.80
2019-05-22T11:37:09.319Z,7.10
2019-05-22T11:38:09.309Z,7.50
2019-05-22T11:39:09.308Z,7.10
2019-05-22T11:40:09.309Z,6.60
2019-05-22T11:41:09.276Z,6.30
2019-05-22T11:42:09.265Z,7.80
2019-05-22T11:43:09.256Z,5.90
2019-05-22T11:44:09.319Z,6.00
2019-05-22T11:45:09.251Z,6.40
2019-05-22T11:46:09.224Z,7.20
2019-05-22T11:47:09.213Z,5.50
2019-05-22T11:48:09.205Z,5.90
2019-05-22T11:49:09.209Z,5.90
2019-05-22T11:50:09.202Z,6.10
2019-05-22T11:51:09.168Z,5.50
2019-05-22T11:52:09.156Z,5.60
2019-05-22T11:53:09.149Z,5.90
2019-05-22T11:54:10.056Z,5.80
2019-05-22T11:55:09.159Z,5.70
2019-05-22T11:56:09.116Z,6.00
2019-05-22T11:57:09.103Z,5.70
2019-05-22T11:58:09.092Z,6.10
2019-05-22T11:59:09.082Z,7.40
2019-05-22T12:00:09.471Z,6.00
2019-05-22T12:01:09.063Z,6.40
2019-05-22T12:02:09.050Z,6.20
2019-05-22T12:03:09.039Z,7.00
2019-05-22T12:04:09.034Z,6.10
2019-05-22T12:05:09.036Z,6.10
2019-05-22T12:06:09.006Z,5.50
2019-05-22T12:07:08.996Z,6.00
2019-05-22T12:08:08.988Z,5.80
2019-05-22T12:09:08.974Z,6.20
2019-05-22T12:10:08.983Z,5.90
2019-05-22T12:11:08.958Z,7.30
2019-05-22T12:12:08.942Z,5.80
2019-05-22T12:13:08.935Z,6.00
2019-05-22T12:14:08.931Z,5.80
2019-05-22T12:15:08.929Z,6.80
2019-05-22T12:16:08.905Z,5.10
2019-05-22T12:17:08.888Z,5.10
2019-05-22T12:18:08.878Z,5.60
2019-05-22T12:19:08.877Z,5.50
2019-05-22T12:20:08.874Z,5.60
2019-05-22T12:21:08.845Z,6.70
2019-05-22T12:22:08.833Z,5.80
2019-05-22T12:23:08.823Z,5.60
2019-05-22T12:24:25.949Z,5.50
2019-05-22T12:25:09.816Z,6.60
2019-05-22T12:26:08.798Z,5.60
2019-05-22T12:27:08.780Z,5.40
2019-05-22T12:28:08.767Z,6.80
2019-05-22T12:29:08.757Z,5.10
2019-05-22T12:30:08.788Z,5.30
2019-05-22T12:31:08.735Z,5.60
2019-05-22T12:32:08.726Z,5.40
2019-05-22T12:33:13.155Z,5.80
2019-05-22T12:34:09.701Z,5.50
2019-05-22T12:35:08.709Z,6.70
2019-05-22T12:36:08.684Z,6.10
2019-05-22T12:37:08.667Z,5.70
2019-05-22T12:38:08.657Z,6.80
2019-05-22T12:39:08.646Z,6.50
2019-05-22T12:40:08.721Z,5.70
2019-05-22T12:41:08.621Z,5.30
2019-05-22T12:42:08.613Z,6.80
2019-05-22T12:43:08.604Z,6.00
2019-05-22T12:44:08.590Z,6.20
2019-05-22T12:45:08.581Z,6.70
2019-05-22T12:46:08.589Z,6.30
2019-05-22T12:47:08.557Z,8.00
2019-05-22T12:48:08.544Z,5.80
2019-05-22T12:49:09.191Z,6.00
2019-05-22T12:50:08.524Z,6.00
2019-05-22T12:51:08.531Z,7.00
2019-05-22T12:52:08.501Z,6.70
2019-05-22T12:53:08.493Z,6.30
2019-05-22T12:54:08.495Z,6.60
2019-05-22T12:55:08.469Z,6.20
2019-05-22T12:56:08.477Z,7.60
2019-05-22T12:57:08.452Z,6.00
2019-05-22T12:58:08.437Z,5.60
2019-05-22T12:59:08.423Z,5.90
2019-05-22T13:00:08.415Z,5.60
2019-05-22T13:01:08.437Z,6.50
2019-05-22T13:02:08.390Z,6.00
2019-05-22T13:03:08.377Z,5.80
2019-05-22T13:04:08.366Z,7.00
2019-05-22T13:05:08.368Z,6.00
2019-05-22T13:06:08.363Z,5.20
2019-05-22T13:07:08.336Z,5.70
2019-05-22T13:08:08.321Z,6.00
2019-05-22T13:09:08.308Z,5.70
2019-05-22T13:10:08.312Z,5.80
2019-05-22T13:11:08.307Z,5.80
2019-05-22T13:12:08.276Z,6.00
2019-05-22T13:13:08.267Z,6.70
2019-05-22T13:14:08.254Z,7.80
2019-05-22T13:15:10.645Z,6.20
2019-05-22T13:16:08.251Z,6.00
2019-05-22T13:17:08.251Z,5.50
2019-05-22T13:18:08.268Z,5.40
2019-05-22T13:19:08.202Z,5.30
2019-05-22T13:20:08.192Z,5.00
2019-05-22T13:21:08.193Z,5.90
2019-05-22T13:22:08.179Z,5.70
2019-05-22T13:23:08.152Z,6.50
2019-05-22T13:24:08.140Z,5.80
2019-05-22T13:25:08.130Z,5.70
2019-05-22T13:26:08.155Z,6.10
2019-05-22T13:27:08.110Z,5.30
2019-05-22T13:28:08.121Z,5.80
2019-05-22T13:29:08.095Z,5.40
2019-05-22T13:30:08.238Z,5.90
2019-05-22T13:31:19.067Z,5.60
2019-05-22T13:32:08.052Z,5.30
2019-05-22T13:33:08.036Z,5.80
2019-05-22T13:34:08.030Z,5.20
2019-05-22T13:35:08.015Z,5.00
2019-05-22T13:36:08.028Z,6.70
2019-05-22T13:37:07.989Z,4.90
2019-05-22T13:38:07.981Z,5.20
2019-05-22T13:39:07.964Z,4.90
2019-05-22T13:40:24.629Z,5.50
2019-05-22T13:41:08.963Z,5.40
2019-05-22T13:42:07.931Z,6.00
2019-05-22T13:43:07.920Z,5.00
2019-05-22T13:44:07.908Z,5.90
2019-05-22T13:45:07.903Z,5.10
2019-05-22T13:46:07.904Z,4.90
2019-05-22T13:47:07.873Z,5.50
2019-05-22T13:48:07.871Z,5.20
2019-05-22T13:49:07.857Z,5.80
2019-05-22T13:50:07.838Z,5.40
2019-05-22T13:51:07.860Z,5.40
2019-05-22T13:52:07.815Z,5.10
2019-05-22T13:53:07.806Z,4.90
2019-05-22T13:54:07.797Z,4.50
2019-05-22T13:55:07.785Z,6.30
2019-05-22T13:56:07.796Z,4.80
2019-05-22T13:57:07.762Z,5.20
2019-05-22T13:58:07.747Z,5.60
2019-05-22T13:59:07.738Z,4.80
2019-05-22T14:00:09.441Z,4.80
2019-05-22T14:01:07.733Z,5.60
2019-05-22T14:02:07.703Z,4.60
2019-05-22T14:03:07.693Z,4.00
2019-05-22T14:04:07.691Z,5.10
2019-05-22T14:05:07.676Z,5.00
2019-05-22T14:06:07.676Z,5.20
2019-05-22T14:07:07.644Z,5.30
2019-05-22T14:08:07.635Z,5.90
2019-05-22T14:09:07.640Z,5.60
2019-05-22T14:10:07.610Z,6.10
2019-05-22T14:11:07.618Z,5.60
2019-05-22T14:12:07.586Z,4.80
2019-05-22T14:13:07.577Z,5.00
2019-05-22T14:14:07.566Z,5.40
2019-05-22T14:15:07.556Z,6.00
2019-05-22T14:16:07.544Z,6.00
2019-05-22T14:17:07.547Z,4.50
2019-05-22T14:18:07.519Z,5.30
2019-05-22T14:19:07.506Z,4.30
2019-05-22T14:20:07.504Z,5.40
2019-05-22T14:21:07.487Z,5.20
2019-05-22T14:22:07.516Z,5.20
2019-05-22T14:23:07.465Z,4.20
2019-05-22T14:24:07.451Z,5.60
2019-05-22T14:25:07.439Z,5.00
2019-05-22T14:26:07.426Z,4.80
2019-05-22T14:27:07.435Z,5.30
2019-05-22T14:28:07.405Z,4.70
2019-05-22T14:29:07.393Z,5.10
2019-05-22T14:30:07.381Z,4.30
2019-05-22T14:31:07.367Z,3.90
2019-05-22T14:32:07.377Z,5.60
2019-05-22T14:33:07.351Z,4.30
2019-05-22T14:34:07.335Z,5.70
2019-05-22T14:35:07.324Z,6.30
2019-05-22T14:36:07.312Z,4.20
2019-05-22T14:37:07.328Z,4.50
2019-05-22T14:38:07.288Z,5.60
2019-05-22T14:39:07.277Z,4.40
2019-05-22T14:40:07.280Z,4.00
2019-05-22T14:41:07.255Z,5.10
2019-05-22T14:42:07.263Z,4.30
2019-05-22T14:43:07.230Z,4.30
2019-05-22T14:44:07.220Z,3.80
2019-05-22T14:45:07.211Z,4.30
2019-05-22T14:46:07.195Z,4.20
2019-05-22T14:47:14.628Z,4.60
2019-05-22T14:48:08.173Z,4.90
2019-05-22T14:49:07.160Z,3.50
2019-05-22T14:50:07.149Z,3.70
2019-05-22T14:51:07.137Z,3.60
2019-05-22T14:52:07.133Z,4.00
2019-05-22T14:53:07.139Z,5.30
2019-05-22T14:54:07.105Z,4.30
2019-05-22T14:55:07.098Z,5.20
2019-05-22T14:56:10.730Z,4.40
2019-05-22T14:57:07.068Z,3.70
2019-05-22T14:58:07.107Z,3.90
2019-05-22T14:59:07.055Z,4.90
2019-05-22T15:00:07.034Z,4.40
2019-05-22T15:01:07.030Z,4.20
2019-05-22T15:02:07.021Z,3.70
2019-05-22T15:03:07.036Z,4.60
2019-05-22T15:04:06.995Z,4.60
2019-05-22T15:05:06.979Z,4.40
2019-05-22T15:06:06.967Z,3.80
2019-05-22T15:07:06.957Z,5.30
2019-05-22T15:08:06.985Z,4.20
2019-05-22T15:09:06.936Z,5.00
2019-05-22T15:10:06.920Z,4.10
2019-05-22T15:11:06.906Z,6.40
2019-05-22T15:12:06.897Z,6.10
2019-05-22T15:13:06.884Z,6.40
2019-05-22T15:14:06.895Z,5.10
2019-05-22T15:15:06.869Z,7.70
2019-05-22T15:16:06.851Z,6.30
2019-05-22T15:17:06.842Z,6.80
2019-05-22T15:18:06.828Z,4.80
2019-05-22T15:19:06.840Z,5.50
2019-05-22T15:20:06.805Z,4.50
2019-05-22T15:21:06.796Z,4.60
2019-05-22T15:22:06.784Z,6.40
2019-05-22T15:23:06.772Z,5.40
2019-05-22T15:24:06.782Z,4.30
2019-05-22T15:25:06.747Z,5.20
2019-05-22T15:26:06.740Z,4.30
2019-05-22T15:27:06.724Z,4.50
2019-05-22T15:28:06.712Z,6.00
2019-05-22T15:29:06.721Z,6.20
2019-05-22T15:30:06.694Z,4.00
2019-05-22T15:31:06.678Z,4.40
2019-05-22T15:32:06.669Z,6.40
2019-05-22T15:33:06.658Z,4.80
2019-05-22T15:34:06.665Z,4.30
2019-05-22T15:35:06.634Z,5.10
2019-05-22T15:36:07.054Z,4.00
2019-05-22T15:37:06.611Z,5.10
2019-05-22T15:38:06.673Z,4.80
2019-05-22T15:39:06.609Z,5.50
2019-05-22T15:40:06.581Z,5.40
2019-05-22T15:41:06.562Z,4.30
2019-05-22T15:42:06.907Z,4.40
2019-05-22T15:43:06.537Z,4.60
2019-05-22T15:44:06.549Z,4.50
2019-05-22T15:45:06.514Z,5.00
2019-05-22T15:46:06.502Z,5.50
2019-05-22T15:47:06.493Z,5.70
2019-05-22T15:48:06.491Z,4.50
2019-05-22T15:49:06.487Z,5.10
2019-05-22T15:50:06.454Z,5.50
2019-05-22T15:51:06.444Z,6.50
